Greenfield, Massachusetts
Current Conditions -  °F | °C
As of 2:52 PM on Monday 24 Nov 2014 (Local Time) from KORE Reporting Station
Overcast Overcast  
Wind Chill: 62°   Ceiling: 1900
Heat Index: 62°   Visibility: 10mi
Dew Point: 58°   Wind: 13mph
Humidity: 86%   Direction: 170°S
Pressure: 29.55"   Gusts: NA
Location:  42.59°N, 72.6°W
Report Text: KORE 241952Z AUTO 17011KT 10SM OVC019 17/14 A2955 RMK AO2 SLP007 T01670144
Loading
Personal Weather Stations






























Interactive Weather Map New forecast layout! Learn more

10-Day Weather Forecast

Advertisements
Track Severe Weather on mobile